sensor_id;sensor_type;location;lat;lon;timestamp;P1;durP1;ratioP1;P2;durP2;ratioP2
44480;SDS011;30184;42.018;23.670;2023-07-16T00:00:41;16.55;;;7.45;;
44480;SDS011;30184;42.018;23.670;2023-07-16T00:03:10;12.73;;;7.78;;
44480;SDS011;30184;42.018;23.670;2023-07-16T00:05:41;14.48;;;7.43;;
44480;SDS011;30184;42.018;23.670;2023-07-16T00:08:11;13.85;;;6.53;;
44480;SDS011;30184;42.018;23.670;2023-07-16T00:10:42;12.70;;;6.95;;
44480;SDS011;30184;42.018;23.670;2023-07-16T00:13:12;12.15;;;6.95;;
44480;SDS011;30184;42.018;23.670;2023-07-16T00:15:41;15.95;;;6.70;;
44480;SDS011;30184;42.018;23.670;2023-07-16T00:18:11;16.05;;;7.22;;
44480;SDS011;30184;42.018;23.670;2023-07-16T00:20:41;11.32;;;6.60;;
44480;SDS011;30184;42.018;23.670;2023-07-16T00:23:11;14.48;;;8.02;;
44480;SDS011;30184;42.018;23.670;2023-07-16T00:25:42;10.55;;;6.85;;
44480;SDS011;30184;42.018;23.670;2023-07-16T00:28:12;11.35;;;7.10;;
44480;SDS011;30184;42.018;23.670;2023-07-16T00:30:41;11.10;;;6.97;;
44480;SDS011;30184;42.018;23.670;2023-07-16T00:33:11;16.00;;;6.95;;
44480;SDS011;30184;42.018;23.670;2023-07-16T00:35:46;12.90;;;7.25;;
44480;SDS011;30184;42.018;23.670;2023-07-16T00:38:17;12.95;;;7.13;;
44480;SDS011;30184;42.018;23.670;2023-07-16T00:40:49;14.55;;;7.68;;
44480;SDS011;30184;42.018;23.670;2023-07-16T00:43:19;13.68;;;6.65;;
44480;SDS011;30184;42.018;23.670;2023-07-16T00:45:49;13.13;;;7.20;;
44480;SDS011;30184;42.018;23.670;2023-07-16T00:48:19;14.75;;;6.78;;
44480;SDS011;30184;42.018;23.670;2023-07-16T00:50:49;15.27;;;7.28;;
44480;SDS011;30184;42.018;23.670;2023-07-16T00:53:21;16.67;;;7.43;;
44480;SDS011;30184;42.018;23.670;2023-07-16T00:55:52;14.48;;;7.35;;
44480;SDS011;30184;42.018;23.670;2023-07-16T00:58:22;11.93;;;7.72;;
44480;SDS011;30184;42.018;23.670;2023-07-16T01:00:54;15.98;;;7.70;;
44480;SDS011;30184;42.018;23.670;2023-07-16T01:03:24;11.57;;;6.90;;
44480;SDS011;30184;42.018;23.670;2023-07-16T01:05:55;14.27;;;7.22;;
44480;SDS011;30184;42.018;23.670;2023-07-16T01:08:30;13.55;;;7.97;;
44480;SDS011;30184;42.018;23.670;2023-07-16T01:11:03;13.07;;;7.05;;
44480;SDS011;30184;42.018;23.670;2023-07-16T01:13:33;18.23;;;8.30;;
44480;SDS011;30184;42.018;23.670;2023-07-16T01:16:04;14.32;;;7.38;;
44480;SDS011;30184;42.018;23.670;2023-07-16T01:18:35;15.50;;;7.97;;
44480;SDS011;30184;42.018;23.670;2023-07-16T01:21:04;15.07;;;7.47;;
44480;SDS011;30184;42.018;23.670;2023-07-16T01:23:36;15.73;;;7.60;;
44480;SDS011;30184;42.018;23.670;2023-07-16T01:29:30;12.55;;;7.22;;
44480;SDS011;30184;42.018;23.670;2023-07-16T01:32:03;25.33;;;8.82;;
44480;SDS011;30184;42.018;23.670;2023-07-16T01:34:36;13.70;;;7.80;;
44480;SDS011;30184;42.018;23.670;2023-07-16T01:37:07;16.45;;;7.95;;
44480;SDS011;30184;42.018;23.670;2023-07-16T01:39:37;13.45;;;8.00;;
44480;SDS011;30184;42.018;23.670;2023-07-16T01:42:09;13.05;;;7.97;;
44480;SDS011;30184;42.018;23.670;2023-07-16T01:44:41;14.43;;;7.80;;
44480;SDS011;30184;42.018;23.670;2023-07-16T01:47:12;12.95;;;7.13;;
44480;SDS011;30184;42.018;23.670;2023-07-16T01:49:43;14.55;;;7.45;;
44480;SDS011;30184;42.018;23.670;2023-07-16T01:52:14;14.32;;;8.10;;
44480;SDS011;30184;42.018;23.670;2023-07-16T01:54:44;12.85;;;7.80;;
44480;SDS011;30184;42.018;23.670;2023-07-16T01:57:14;14.73;;;7.28;;
44480;SDS011;30184;42.018;23.670;2023-07-16T01:59:46;12.35;;;7.13;;
44480;SDS011;30184;42.018;23.670;2023-07-16T02:02:15;13.52;;;7.03;;
44480;SDS011;30184;42.018;23.670;2023-07-16T02:04:45;16.67;;;8.68;;
44480;SDS011;30184;42.018;23.670;2023-07-16T02:07:15;20.60;;;7.47;;
44480;SDS011;30184;42.018;23.670;2023-07-16T02:09:45;16.15;;;8.50;;
44480;SDS011;30184;42.018;23.670;2023-07-16T02:12:15;17.65;;;7.53;;
44480;SDS011;30184;42.018;23.670;2023-07-16T02:14:47;15.25;;;7.38;;
44480;SDS011;30184;42.018;23.670;2023-07-16T02:17:17;19.55;;;8.45;;
44480;SDS011;30184;42.018;23.670;2023-07-16T02:19:47;15.23;;;7.15;;
44480;SDS011;30184;42.018;23.670;2023-07-16T02:22:17;13.38;;;7.55;;
44480;SDS011;30184;42.018;23.670;2023-07-16T02:24:46;14.05;;;8.43;;
44480;SDS011;30184;42.018;23.670;2023-07-16T02:27:16;16.60;;;8.68;;
44480;SDS011;30184;42.018;23.670;2023-07-16T02:29:48;13.35;;;7.80;;
44480;SDS011;30184;42.018;23.670;2023-07-16T02:32:18;12.43;;;7.40;;
44480;SDS011;30184;42.018;23.670;2023-07-16T02:34:48;14.32;;;7.50;;
44480;SDS011;30184;42.018;23.670;2023-07-16T02:37:18;17.92;;;7.10;;
44480;SDS011;30184;42.018;23.670;2023-07-16T02:39:47;21.33;;;7.97;;
44480;SDS011;30184;42.018;23.670;2023-07-16T02:42:17;17.95;;;8.48;;
44480;SDS011;30184;42.018;23.670;2023-07-16T02:44:48;13.00;;;7.93;;
44480;SDS011;30184;42.018;23.670;2023-07-16T02:47:18;14.05;;;7.68;;
44480;SDS011;30184;42.018;23.670;2023-07-16T02:49:50;12.32;;;7.90;;
44480;SDS011;30184;42.018;23.670;2023-07-16T02:52:21;15.80;;;8.60;;
44480;SDS011;30184;42.018;23.670;2023-07-16T02:54:50;15.60;;;8.95;;
44480;SDS011;30184;42.018;23.670;2023-07-16T02:57:20;16.05;;;8.63;;
44480;SDS011;30184;42.018;23.670;2023-07-16T02:59:52;14.18;;;8.90;;
44480;SDS011;30184;42.018;23.670;2023-07-16T03:02:21;18.50;;;9.07;;
44480;SDS011;30184;42.018;23.670;2023-07-16T03:04:51;14.75;;;8.07;;
44480;SDS011;30184;42.018;23.670;2023-07-16T03:07:20;14.32;;;7.82;;
44480;SDS011;30184;42.018;23.670;2023-07-16T03:09:50;15.07;;;8.32;;
44480;SDS011;30184;42.018;23.670;2023-07-16T03:12:21;15.60;;;8.63;;
44480;SDS011;30184;42.018;23.670;2023-07-16T03:14:53;13.27;;;8.30;;
44480;SDS011;30184;42.018;23.670;2023-07-16T03:17:22;15.60;;;8.00;;
44480;SDS011;30184;42.018;23.670;2023-07-16T03:19:52;17.77;;;8.40;;
44480;SDS011;30184;42.018;23.670;2023-07-16T03:22:22;16.77;;;8.07;;
44480;SDS011;30184;42.018;23.670;2023-07-16T03:24:52;14.85;;;8.00;;
44480;SDS011;30184;42.018;23.670;2023-07-16T03:27:22;19.02;;;7.95;;
44480;SDS011;30184;42.018;23.670;2023-07-16T03:29:59;23.20;;;8.40;;
44480;SDS011;30184;42.018;23.670;2023-07-16T03:32:31;14.82;;;7.95;;
44480;SDS011;30184;42.018;23.670;2023-07-16T03:35:08;15.40;;;7.95;;
44480;SDS011;30184;42.018;23.670;2023-07-16T03:37:39;15.85;;;8.57;;
44480;SDS011;30184;42.018;23.670;2023-07-16T03:40:12;16.08;;;8.38;;
44480;SDS011;30184;42.018;23.670;2023-07-16T03:42:46;16.95;;;8.90;;
44480;SDS011;30184;42.018;23.670;2023-07-16T03:45:17;19.25;;;8.65;;
44480;SDS011;30184;42.018;23.670;2023-07-16T03:47:47;17.48;;;9.02;;
44480;SDS011;30184;42.018;23.670;2023-07-16T03:50:17;20.52;;;9.18;;
44480;SDS011;30184;42.018;23.670;2023-07-16T03:52:47;14.45;;;8.30;;
44480;SDS011;30184;42.018;23.670;2023-07-16T03:55:17;13.88;;;8.73;;
44480;SDS011;30184;42.018;23.670;2023-07-16T03:57:47;13.45;;;8.40;;
44480;SDS011;30184;42.018;23.670;2023-07-16T04:00:19;13.05;;;8.32;;
44480;SDS011;30184;42.018;23.670;2023-07-16T04:02:50;15.20;;;9.05;;
44480;SDS011;30184;42.018;23.670;2023-07-16T04:05:21;18.65;;;9.32;;
44480;SDS011;30184;42.018;23.670;2023-07-16T04:07:51;15.57;;;8.23;;
44480;SDS011;30184;42.018;23.670;2023-07-16T04:10:21;18.40;;;8.18;;
44480;SDS011;30184;42.018;23.670;2023-07-16T04:12:51;15.18;;;8.15;;
44480;SDS011;30184;42.018;23.670;2023-07-16T04:15:22;15.82;;;9.10;;
44480;SDS011;30184;42.018;23.670;2023-07-16T04:17:52;19.38;;;8.38;;
44480;SDS011;30184;42.018;23.670;2023-07-16T04:20:21;15.35;;;8.60;;
44480;SDS011;30184;42.018;23.670;2023-07-16T04:22:52;17.35;;;9.15;;
44480;SDS011;30184;42.018;23.670;2023-07-16T04:25:22;14.95;;;8.40;;
44480;SDS011;30184;42.018;23.670;2023-07-16T04:27:52;21.42;;;9.23;;
44480;SDS011;30184;42.018;23.670;2023-07-16T04:30:23;20.58;;;9.15;;
44480;SDS011;30184;42.018;23.670;2023-07-16T04:32:53;16.08;;;10.10;;
44480;SDS011;30184;42.018;23.670;2023-07-16T04:35:22;19.05;;;10.27;;
44480;SDS011;30184;42.018;23.670;2023-07-16T04:37:52;15.57;;;8.77;;
44480;SDS011;30184;42.018;23.670;2023-07-16T04:40:22;20.77;;;10.25;;
44480;SDS011;30184;42.018;23.670;2023-07-16T04:42:51;15.32;;;9.25;;
44480;SDS011;30184;42.018;23.670;2023-07-16T04:45:23;15.75;;;9.10;;
44480;SDS011;30184;42.018;23.670;2023-07-16T04:47:53;24.30;;;8.88;;
44480;SDS011;30184;42.018;23.670;2023-07-16T04:50:23;16.90;;;9.85;;
44480;SDS011;30184;42.018;23.670;2023-07-16T04:52:53;20.73;;;8.55;;
44480;SDS011;30184;42.018;23.670;2023-07-16T04:55:22;16.00;;;8.63;;
44480;SDS011;30184;42.018;23.670;2023-07-16T04:57:52;14.98;;;7.68;;
44480;SDS011;30184;42.018;23.670;2023-07-16T05:00:23;12.15;;;7.82;;
44480;SDS011;30184;42.018;23.670;2023-07-16T05:02:53;14.43;;;7.68;;
44480;SDS011;30184;42.018;23.670;2023-07-16T05:05:23;15.18;;;8.43;;
44480;SDS011;30184;42.018;23.670;2023-07-16T05:07:53;15.02;;;8.88;;
44480;SDS011;30184;42.018;23.670;2023-07-16T05:10:23;19.63;;;7.78;;
44480;SDS011;30184;42.018;23.670;2023-07-16T05:12:53;13.98;;;8.25;;
44480;SDS011;30184;42.018;23.670;2023-07-16T05:15:24;16.83;;;9.25;;
44480;SDS011;30184;42.018;23.670;2023-07-16T05:17:54;13.93;;;8.82;;
44480;SDS011;30184;42.018;23.670;2023-07-16T05:20:25;16.45;;;8.80;;
44480;SDS011;30184;42.018;23.670;2023-07-16T05:22:54;14.23;;;8.23;;
44480;SDS011;30184;42.018;23.670;2023-07-16T05:25:24;14.95;;;8.82;;
44480;SDS011;30184;42.018;23.670;2023-07-16T05:27:55;15.93;;;8.15;;
44480;SDS011;30184;42.018;23.670;2023-07-16T05:30:27;15.13;;;8.65;;
44480;SDS011;30184;42.018;23.670;2023-07-16T05:32:56;22.35;;;9.32;;
44480;SDS011;30184;42.018;23.670;2023-07-16T05:35:26;14.63;;;8.07;;
44480;SDS011;30184;42.018;23.670;2023-07-16T05:37:56;12.65;;;8.40;;
44480;SDS011;30184;42.018;23.670;2023-07-16T05:40:26;14.85;;;8.07;;
44480;SDS011;30184;42.018;23.670;2023-07-16T05:42:55;14.98;;;7.47;;
44480;SDS011;30184;42.018;23.670;2023-07-16T05:45:28;15.35;;;7.68;;
44480;SDS011;30184;42.018;23.670;2023-07-16T05:47:58;14.10;;;7.35;;
44480;SDS011;30184;42.018;23.670;2023-07-16T05:50:28;14.05;;;8.55;;
44480;SDS011;30184;42.018;23.670;2023-07-16T05:52:58;14.25;;;7.72;;
44480;SDS011;30184;42.018;23.670;2023-07-16T05:55:27;17.75;;;7.43;;
44480;SDS011;30184;42.018;23.670;2023-07-16T05:57:57;22.27;;;8.52;;
44480;SDS011;30184;42.018;23.670;2023-07-16T06:00:29;13.25;;;8.27;;
44480;SDS011;30184;42.018;23.670;2023-07-16T06:02:58;15.55;;;8.25;;
44480;SDS011;30184;42.018;23.670;2023-07-16T06:05:29;12.85;;;7.53;;
44480;SDS011;30184;42.018;23.670;2023-07-16T06:08:01;14.02;;;8.32;;
44480;SDS011;30184;42.018;23.670;2023-07-16T06:10:33;13.25;;;7.78;;
44480;SDS011;30184;42.018;23.670;2023-07-16T06:13:03;24.63;;;7.53;;
44480;SDS011;30184;42.018;23.670;2023-07-16T06:15:35;13.30;;;7.07;;
44480;SDS011;30184;42.018;23.670;2023-07-16T06:18:06;17.00;;;8.45;;
44480;SDS011;30184;42.018;23.670;2023-07-16T06:20:36;14.68;;;7.40;;
44480;SDS011;30184;42.018;23.670;2023-07-16T06:23:06;15.40;;;7.90;;
44480;SDS011;30184;42.018;23.670;2023-07-16T06:25:35;12.48;;;6.82;;
44480;SDS011;30184;42.018;23.670;2023-07-16T06:28:11;10.77;;;7.10;;
44480;SDS011;30184;42.018;23.670;2023-07-16T06:30:43;13.13;;;7.53;;
44480;SDS011;30184;42.018;23.670;2023-07-16T06:33:12;13.35;;;7.40;;
44480;SDS011;30184;42.018;23.670;2023-07-16T06:35:43;18.55;;;7.38;;
44480;SDS011;30184;42.018;23.670;2023-07-16T06:38:15;11.10;;;6.55;;
44480;SDS011;30184;42.018;23.670;2023-07-16T06:40:47;11.75;;;6.50;;
44480;SDS011;30184;42.018;23.670;2023-07-16T06:43:17;13.30;;;6.45;;
44480;SDS011;30184;42.018;23.670;2023-07-16T06:45:49;16.35;;;7.47;;
44480;SDS011;30184;42.018;23.670;2023-07-16T06:48:19;12.43;;;7.18;;
44480;SDS011;30184;42.018;23.670;2023-07-16T06:50:51;14.70;;;7.50;;
44480;SDS011;30184;42.018;23.670;2023-07-16T06:53:21;12.20;;;6.38;;
44480;SDS011;30184;42.018;23.670;2023-07-16T06:55:50;16.90;;;6.88;;
44480;SDS011;30184;42.018;23.670;2023-07-16T06:58:19;14.93;;;7.10;;
44480;SDS011;30184;42.018;23.670;2023-07-16T07:00:54;16.50;;;7.68;;
44480;SDS011;30184;42.018;23.670;2023-07-16T07:03:28;14.57;;;7.83;;
44480;SDS011;30184;42.018;23.670;2023-07-16T07:05:58;13.52;;;7.07;;
44480;SDS011;30184;42.018;23.670;2023-07-16T07:08:30;22.80;;;13.50;;
44480;SDS011;30184;42.018;23.670;2023-07-16T07:11:00;14.48;;;7.10;;
44480;SDS011;30184;42.018;23.670;2023-07-16T07:13:29;15.95;;;8.45;;
44480;SDS011;30184;42.018;23.670;2023-07-16T07:16:00;15.55;;;7.57;;
44480;SDS011;30184;42.018;23.670;2023-07-16T07:18:30;14.63;;;7.78;;
44480;SDS011;30184;42.018;23.670;2023-07-16T07:20:59;15.68;;;8.15;;
44480;SDS011;30184;42.018;23.670;2023-07-16T07:23:29;12.20;;;7.57;;
44480;SDS011;30184;42.018;23.670;2023-07-16T07:25:58;12.45;;;8.23;;
44480;SDS011;30184;42.018;23.670;2023-07-16T07:28:28;18.17;;;8.85;;
44480;SDS011;30184;42.018;23.670;2023-07-16T07:30:58;14.25;;;7.47;;
44480;SDS011;30184;42.018;23.670;2023-07-16T07:33:30;18.00;;;8.93;;
44480;SDS011;30184;42.018;23.670;2023-07-16T07:35:59;16.80;;;8.52;;
44480;SDS011;30184;42.018;23.670;2023-07-16T07:38:29;14.63;;;7.93;;
44480;SDS011;30184;42.018;23.670;2023-07-16T07:40:58;15.00;;;8.05;;
44480;SDS011;30184;42.018;23.670;2023-07-16T07:43:28;15.82;;;8.45;;
44480;SDS011;30184;42.018;23.670;2023-07-16T07:45:57;14.85;;;8.43;;
44480;SDS011;30184;42.018;23.670;2023-07-16T07:48:28;13.43;;;7.88;;
44480;SDS011;30184;42.018;23.670;2023-07-16T07:50:57;14.93;;;7.93;;
44480;SDS011;30184;42.018;23.670;2023-07-16T07:53:27;18.73;;;8.18;;
44480;SDS011;30184;42.018;23.670;2023-07-16T07:55:56;13.68;;;7.15;;
44480;SDS011;30184;42.018;23.670;2023-07-16T07:58:26;13.18;;;7.38;;
44480;SDS011;30184;42.018;23.670;2023-07-16T08:00:56;16.05;;;7.63;;
44480;SDS011;30184;42.018;23.670;2023-07-16T08:03:26;15.75;;;7.72;;
44480;SDS011;30184;42.018;23.670;2023-07-16T08:05:57;14.75;;;7.97;;
44480;SDS011;30184;42.018;23.670;2023-07-16T08:08:26;16.67;;;6.85;;
44480;SDS011;30184;42.018;23.670;2023-07-16T08:10:56;14.10;;;6.63;;
44480;SDS011;30184;42.018;23.670;2023-07-16T08:13:26;12.13;;;7.28;;
44480;SDS011;30184;42.018;23.670;2023-07-16T08:15:55;12.20;;;7.97;;
44480;SDS011;30184;42.018;23.670;2023-07-16T08:18:24;15.35;;;8.50;;
44480;SDS011;30184;42.018;23.670;2023-07-16T08:20:56;13.63;;;7.78;;
44480;SDS011;30184;42.018;23.670;2023-07-16T08:23:25;12.63;;;8.10;;
44480;SDS011;30184;42.018;23.670;2023-07-16T08:25:54;11.45;;;7.22;;
44480;SDS011;30184;42.018;23.670;2023-07-16T08:28:24;18.67;;;7.78;;
44480;SDS011;30184;42.018;23.670;2023-07-16T08:30:55;10.65;;;6.97;;
44480;SDS011;30184;42.018;23.670;2023-07-16T08:33:24;14.45;;;7.72;;
44480;SDS011;30184;42.018;23.670;2023-07-16T08:35:53;11.75;;;7.70;;
44480;SDS011;30184;42.018;23.670;2023-07-16T08:38:24;13.52;;;8.25;;
44480;SDS011;30184;42.018;23.670;2023-07-16T08:40:54;13.10;;;7.35;;
44480;SDS011;30184;42.018;23.670;2023-07-16T08:43:23;14.75;;;7.75;;
44480;SDS011;30184;42.018;23.670;2023-07-16T08:45:54;18.15;;;7.30;;
44480;SDS011;30184;42.018;23.670;2023-07-16T08:48:24;12.95;;;6.75;;
44480;SDS011;30184;42.018;23.670;2023-07-16T08:50:58;15.13;;;7.63;;
44480;SDS011;30184;42.018;23.670;2023-07-16T08:53:30;11.30;;;6.72;;
44480;SDS011;30184;42.018;23.670;2023-07-16T08:55:59;11.85;;;7.15;;
44480;SDS011;30184;42.018;23.670;2023-07-16T08:58:32;13.00;;;7.55;;
44480;SDS011;30184;42.018;23.670;2023-07-16T09:01:03;12.45;;;7.35;;
44480;SDS011;30184;42.018;23.670;2023-07-16T09:03:34;11.23;;;6.47;;
44480;SDS011;30184;42.018;23.670;2023-07-16T09:06:05;10.05;;;6.13;;
44480;SDS011;30184;42.018;23.670;2023-07-16T09:08:35;12.88;;;6.72;;
44480;SDS011;30184;42.018;23.670;2023-07-16T09:11:04;18.23;;;7.18;;
44480;SDS011;30184;42.018;23.670;2023-07-16T09:13:33;12.88;;;6.93;;
44480;SDS011;30184;42.018;23.670;2023-07-16T09:16:03;14.85;;;7.28;;
44480;SDS011;30184;42.018;23.670;2023-07-16T09:18:33;15.38;;;8.00;;
44480;SDS011;30184;42.018;23.670;2023-07-16T09:21:04;12.07;;;7.25;;
44480;SDS011;30184;42.018;23.670;2023-07-16T09:23:34;12.15;;;6.65;;
44480;SDS011;30184;42.018;23.670;2023-07-16T09:26:04;12.43;;;7.20;;
44480;SDS011;30184;42.018;23.670;2023-07-16T09:28:34;12.63;;;6.78;;
44480;SDS011;30184;42.018;23.670;2023-07-16T09:31:03;13.10;;;6.68;;
44480;SDS011;30184;42.018;23.670;2023-07-16T09:33:33;11.45;;;6.45;;
44480;SDS011;30184;42.018;23.670;2023-07-16T09:36:05;9.60;;;5.82;;
44480;SDS011;30184;42.018;23.670;2023-07-16T09:38:34;15.25;;;6.90;;
44480;SDS011;30184;42.018;23.670;2023-07-16T09:41:04;11.15;;;6.45;;
44480;SDS011;30184;42.018;23.670;2023-07-16T09:43:34;9.93;;;5.85;;
44480;SDS011;30184;42.018;23.670;2023-07-16T09:46:06;11.10;;;6.22;;
44480;SDS011;30184;42.018;23.670;2023-07-16T09:48:35;11.88;;;5.78;;
44480;SDS011;30184;42.018;23.670;2023-07-16T09:51:06;10.43;;;5.95;;
44480;SDS011;30184;42.018;23.670;2023-07-16T09:53:40;11.10;;;5.83;;
44480;SDS011;30184;42.018;23.670;2023-07-16T09:56:12;14.23;;;5.95;;
44480;SDS011;30184;42.018;23.670;2023-07-16T09:58:42;11.88;;;5.97;;
44480;SDS011;30184;42.018;23.670;2023-07-16T10:01:12;9.90;;;5.82;;
44480;SDS011;30184;42.018;23.670;2023-07-16T10:03:48;13.02;;;6.00;;
44480;SDS011;30184;42.018;23.670;2023-07-16T10:06:19;9.20;;;5.65;;
44480;SDS011;30184;42.018;23.670;2023-07-16T10:08:50;12.95;;;6.13;;
44480;SDS011;30184;42.018;23.670;2023-07-16T10:11:19;11.40;;;5.88;;
44480;SDS011;30184;42.018;23.670;2023-07-16T10:13:50;9.65;;;5.43;;
44480;SDS011;30184;42.018;23.670;2023-07-16T10:16:20;10.90;;;5.78;;
44480;SDS011;30184;42.018;23.670;2023-07-16T10:18:51;9.27;;;5.65;;
44480;SDS011;30184;42.018;23.670;2023-07-16T10:21:24;10.57;;;5.40;;
44480;SDS011;30184;42.018;23.670;2023-07-16T10:23:57;10.13;;;5.95;;
44480;SDS011;30184;42.018;23.670;2023-07-16T10:26:27;9.55;;;5.53;;
44480;SDS011;30184;42.018;23.670;2023-07-16T10:28:57;8.13;;;5.20;;
44480;SDS011;30184;42.018;23.670;2023-07-16T10:31:27;9.80;;;5.65;;
44480;SDS011;30184;42.018;23.670;2023-07-16T10:33:58;9.70;;;5.78;;
44480;SDS011;30184;42.018;23.670;2023-07-16T10:36:30;11.60;;;5.82;;
44480;SDS011;30184;42.018;23.670;2023-07-16T10:39:06;12.57;;;6.50;;
44480;SDS011;30184;42.018;23.670;2023-07-16T10:41:36;9.82;;;5.63;;
44480;SDS011;30184;42.018;23.670;2023-07-16T10:44:07;8.63;;;5.57;;
44480;SDS011;30184;42.018;23.670;2023-07-16T10:46:37;12.77;;;6.55;;
44480;SDS011;30184;42.018;23.670;2023-07-16T10:49:07;9.32;;;5.25;;
44480;SDS011;30184;42.018;23.670;2023-07-16T10:51:38;13.00;;;6.07;;
44480;SDS011;30184;42.018;23.670;2023-07-16T10:54:08;8.65;;;5.03;;
44480;SDS011;30184;42.018;23.670;2023-07-16T10:56:38;7.70;;;5.25;;
44480;SDS011;30184;42.018;23.670;2023-07-16T10:59:09;10.50;;;5.40;;
44480;SDS011;30184;42.018;23.670;2023-07-16T11:01:40;12.25;;;5.93;;
44480;SDS011;30184;42.018;23.670;2023-07-16T11:04:10;9.50;;;5.22;;
44480;SDS011;30184;42.018;23.670;2023-07-16T11:06:41;8.98;;;5.45;;
44480;SDS011;30184;42.018;23.670;2023-07-16T11:09:11;9.32;;;5.40;;
44480;SDS011;30184;42.018;23.670;2023-07-16T11:11:42;8.80;;;4.68;;
44480;SDS011;30184;42.018;23.670;2023-07-16T11:14:12;8.80;;;5.30;;
44480;SDS011;30184;42.018;23.670;2023-07-16T11:16:41;11.93;;;5.28;;
44480;SDS011;30184;42.018;23.670;2023-07-16T11:19:10;11.40;;;5.38;;
44480;SDS011;30184;42.018;23.670;2023-07-16T11:21:41;9.15;;;5.40;;
44480;SDS011;30184;42.018;23.670;2023-07-16T11:24:12;10.80;;;5.35;;
44480;SDS011;30184;42.018;23.670;2023-07-16T11:26:49;8.90;;;5.18;;
44480;SDS011;30184;42.018;23.670;2023-07-16T11:29:19;9.68;;;4.97;;
44480;SDS011;30184;42.018;23.670;2023-07-16T11:31:50;9.05;;;4.97;;
44480;SDS011;30184;42.018;23.670;2023-07-16T11:34:20;8.73;;;4.85;;
44480;SDS011;30184;42.018;23.670;2023-07-16T11:36:52;6.75;;;4.75;;
44480;SDS011;30184;42.018;23.670;2023-07-16T11:39:21;9.60;;;4.93;;
44480;SDS011;30184;42.018;23.670;2023-07-16T11:41:56;11.82;;;5.15;;
44480;SDS011;30184;42.018;23.670;2023-07-16T11:44:26;10.63;;;4.75;;
44480;SDS011;30184;42.018;23.670;2023-07-16T11:47:02;7.80;;;4.85;;
44480;SDS011;30184;42.018;23.670;2023-07-16T11:49:32;9.25;;;4.78;;
44480;SDS011;30184;42.018;23.670;2023-07-16T11:52:06;6.75;;;4.65;;
44480;SDS011;30184;42.018;23.670;2023-07-16T11:54:36;8.18;;;5.03;;
44480;SDS011;30184;42.018;23.670;2023-07-16T11:57:06;10.10;;;5.18;;
44480;SDS011;30184;42.018;23.670;2023-07-16T11:59:35;8.63;;;4.80;;
44480;SDS011;30184;42.018;23.670;2023-07-16T12:02:06;12.10;;;5.20;;
44480;SDS011;30184;42.018;23.670;2023-07-16T12:04:36;9.10;;;4.97;;
44480;SDS011;30184;42.018;23.670;2023-07-16T12:07:08;11.30;;;4.80;;
44480;SDS011;30184;42.018;23.670;2023-07-16T12:09:37;9.55;;;4.68;;
44480;SDS011;30184;42.018;23.670;2023-07-16T12:12:08;11.18;;;5.55;;
44480;SDS011;30184;42.018;23.670;2023-07-16T12:14:37;7.32;;;5.00;;
44480;SDS011;30184;42.018;23.670;2023-07-16T12:17:06;10.73;;;4.85;;
44480;SDS011;30184;42.018;23.670;2023-07-16T12:19:36;8.98;;;4.82;;
44480;SDS011;30184;42.018;23.670;2023-07-16T12:22:05;7.75;;;5.13;;
44480;SDS011;30184;42.018;23.670;2023-07-16T12:24:37;7.85;;;4.32;;
44480;SDS011;30184;42.018;23.670;2023-07-16T12:27:07;9.35;;;5.35;;
44480;SDS011;30184;42.018;23.670;2023-07-16T12:29:36;10.23;;;5.20;;
44480;SDS011;30184;42.018;23.670;2023-07-16T12:32:06;7.38;;;4.57;;
44480;SDS011;30184;42.018;23.670;2023-07-16T12:34:36;8.75;;;4.70;;
44480;SDS011;30184;42.018;23.670;2023-07-16T12:37:07;8.80;;;4.47;;
44480;SDS011;30184;42.018;23.670;2023-07-16T12:39:36;12.02;;;5.13;;
44480;SDS011;30184;42.018;23.670;2023-07-16T12:42:06;8.57;;;5.53;;
44480;SDS011;30184;42.018;23.670;2023-07-16T12:44:36;8.35;;;5.28;;
44480;SDS011;30184;42.018;23.670;2023-07-16T12:47:05;8.40;;;5.28;;
44480;SDS011;30184;42.018;23.670;2023-07-16T12:49:37;9.40;;;4.82;;
44480;SDS011;30184;42.018;23.670;2023-07-16T12:52:08;10.00;;;5.57;;
44480;SDS011;30184;42.018;23.670;2023-07-16T12:54:38;9.07;;;4.78;;
44480;SDS011;30184;42.018;23.670;2023-07-16T12:57:10;10.15;;;4.88;;
44480;SDS011;30184;42.018;23.670;2023-07-16T12:59:39;7.35;;;5.07;;
44480;SDS011;30184;42.018;23.670;2023-07-16T13:02:09;9.02;;;4.53;;
44480;SDS011;30184;42.018;23.670;2023-07-16T13:04:38;7.45;;;4.55;;
44480;SDS011;30184;42.018;23.670;2023-07-16T13:07:10;8.90;;;5.15;;
44480;SDS011;30184;42.018;23.670;2023-07-16T13:09:40;9.90;;;5.20;;
44480;SDS011;30184;42.018;23.670;2023-07-16T13:12:10;9.57;;;5.32;;
44480;SDS011;30184;42.018;23.670;2023-07-16T13:14:39;10.57;;;5.53;;
44480;SDS011;30184;42.018;23.670;2023-07-16T13:17:09;7.75;;;4.85;;
44480;SDS011;30184;42.018;23.670;2023-07-16T13:19:39;9.70;;;4.95;;
44480;SDS011;30184;42.018;23.670;2023-07-16T13:22:10;9.18;;;4.47;;
44480;SDS011;30184;42.018;23.670;2023-07-16T13:24:42;9.63;;;5.05;;
44480;SDS011;30184;42.018;23.670;2023-07-16T13:27:19;8.85;;;5.03;;
44480;SDS011;30184;42.018;23.670;2023-07-16T13:29:49;10.30;;;4.78;;
44480;SDS011;30184;42.018;23.670;2023-07-16T13:32:19;5.72;;;3.75;;
44480;SDS011;30184;42.018;23.670;2023-07-16T13:34:48;7.53;;;4.45;;
44480;SDS011;30184;42.018;23.670;2023-07-16T13:37:19;6.05;;;4.10;;
44480;SDS011;30184;42.018;23.670;2023-07-16T13:39:49;9.57;;;4.75;;
44480;SDS011;30184;42.018;23.670;2023-07-16T13:42:19;9.38;;;5.13;;
44480;SDS011;30184;42.018;23.670;2023-07-16T13:44:49;6.55;;;4.55;;
44480;SDS011;30184;42.018;23.670;2023-07-16T13:47:19;9.82;;;4.40;;
44480;SDS011;30184;42.018;23.670;2023-07-16T13:49:50;9.98;;;4.93;;
44480;SDS011;30184;42.018;23.670;2023-07-16T13:52:21;12.88;;;5.05;;
44480;SDS011;30184;42.018;23.670;2023-07-16T13:54:51;11.98;;;4.90;;
44480;SDS011;30184;42.018;23.670;2023-07-16T13:57:21;7.97;;;4.82;;
44480;SDS011;30184;42.018;23.670;2023-07-16T13:59:51;8.80;;;4.97;;
44480;SDS011;30184;42.018;23.670;2023-07-16T14:02:20;9.90;;;5.50;;
44480;SDS011;30184;42.018;23.670;2023-07-16T14:04:50;12.27;;;5.30;;
44480;SDS011;30184;42.018;23.670;2023-07-16T14:07:19;7.72;;;4.35;;
44480;SDS011;30184;42.018;23.670;2023-07-16T14:09:51;7.85;;;5.28;;
44480;SDS011;30184;42.018;23.670;2023-07-16T14:12:21;6.80;;;4.75;;
44480;SDS011;30184;42.018;23.670;2023-07-16T14:14:51;7.60;;;4.38;;
44480;SDS011;30184;42.018;23.670;2023-07-16T14:17:21;9.68;;;5.00;;
44480;SDS011;30184;42.018;23.670;2023-07-16T14:19:51;8.15;;;4.50;;
44480;SDS011;30184;42.018;23.670;2023-07-16T14:22:22;11.43;;;5.40;;
44480;SDS011;30184;42.018;23.670;2023-07-16T14:24:55;8.50;;;4.82;;
44480;SDS011;30184;42.018;23.670;2023-07-16T14:27:24;14.35;;;4.57;;
44480;SDS011;30184;42.018;23.670;2023-07-16T14:29:57;10.10;;;5.25;;
44480;SDS011;30184;42.018;23.670;2023-07-16T14:32:32;8.35;;;4.72;;
44480;SDS011;30184;42.018;23.670;2023-07-16T14:35:02;7.90;;;4.53;;
44480;SDS011;30184;42.018;23.670;2023-07-16T14:40:20;14.40;;;4.70;;
44480;SDS011;30184;42.018;23.670;2023-07-16T14:42:49;11.85;;;5.28;;
44480;SDS011;30184;42.018;23.670;2023-07-16T14:45:19;8.63;;;5.05;;
44480;SDS011;30184;42.018;23.670;2023-07-16T14:47:49;9.25;;;4.20;;